sensor_id;sensor_type;location;lat;lon;timestamp;P1;durP1;ratioP1;P2;durP2;ratioP2
44366;SDS011;30086;57.660;12.000;2023-02-18T00:00:32;7.45;;;2.22;;
44366;SDS011;30086;57.660;12.000;2023-02-18T00:03:28;15.77;;;3.15;;
44366;SDS011;30086;57.660;12.000;2023-02-18T00:06:16;23.92;;;5.07;;
44366;SDS011;30086;57.660;12.000;2023-02-18T00:08:57;14.23;;;3.50;;
44366;SDS011;30086;57.660;12.000;2023-02-18T00:11:44;17.40;;;3.95;;
44366;SDS011;30086;57.660;12.000;2023-02-18T00:14:11;16.15;;;3.90;;
44366;SDS011;30086;57.660;12.000;2023-02-18T00:16:37;9.73;;;2.22;;
44366;SDS011;30086;57.660;12.000;2023-02-18T00:19:07;23.00;;;3.17;;
44366;SDS011;30086;57.660;12.000;2023-02-18T00:21:36;12.13;;;3.60;;
44366;SDS011;30086;57.660;12.000;2023-02-18T00:24:06;13.73;;;2.85;;
44366;SDS011;30086;57.660;12.000;2023-02-18T00:26:33;16.90;;;3.88;;
44366;SDS011;30086;57.660;12.000;2023-02-18T00:29:00;15.68;;;3.92;;
44366;SDS011;30086;57.660;12.000;2023-02-18T00:31:28;14.30;;;3.35;;
44366;SDS011;30086;57.660;12.000;2023-02-18T00:33:55;12.40;;;3.33;;
44366;SDS011;30086;57.660;12.000;2023-02-18T00:36:23;8.45;;;2.15;;
44366;SDS011;30086;57.660;12.000;2023-02-18T00:38:55;16.48;;;4.43;;
44366;SDS011;30086;57.660;12.000;2023-02-18T00:41:23;17.05;;;3.03;;
44366;SDS011;30086;57.660;12.000;2023-02-18T00:43:51;14.80;;;2.38;;
44366;SDS011;30086;57.660;12.000;2023-02-18T00:46:21;24.10;;;4.07;;
44366;SDS011;30086;57.660;12.000;2023-02-18T00:48:48;7.40;;;2.63;;
44366;SDS011;30086;57.660;12.000;2023-02-18T00:51:15;18.58;;;4.50;;
44366;SDS011;30086;57.660;12.000;2023-02-18T00:53:41;15.23;;;3.25;;
44366;SDS011;30086;57.660;12.000;2023-02-18T00:56:07;22.05;;;3.88;;
44366;SDS011;30086;57.660;12.000;2023-02-18T00:58:34;20.25;;;3.95;;
44366;SDS011;30086;57.660;12.000;2023-02-18T01:01:01;15.30;;;3.28;;
44366;SDS011;30086;57.660;12.000;2023-02-18T01:03:28;10.07;;;2.22;;
44366;SDS011;30086;57.660;12.000;2023-02-18T01:05:54;17.55;;;3.95;;
44366;SDS011;30086;57.660;12.000;2023-02-18T01:08:20;15.40;;;3.80;;
44366;SDS011;30086;57.660;12.000;2023-02-18T01:10:47;14.52;;;3.22;;
44366;SDS011;30086;57.660;12.000;2023-02-18T01:13:14;5.85;;;1.95;;
44366;SDS011;30086;57.660;12.000;2023-02-18T01:15:40;17.83;;;3.35;;
44366;SDS011;30086;57.660;12.000;2023-02-18T01:18:07;12.55;;;3.03;;
44366;SDS011;30086;57.660;12.000;2023-02-18T01:20:35;15.95;;;3.17;;
44366;SDS011;30086;57.660;12.000;2023-02-18T01:23:02;7.60;;;1.67;;
44366;SDS011;30086;57.660;12.000;2023-02-18T01:25:28;18.83;;;3.58;;
44366;SDS011;30086;57.660;12.000;2023-02-18T01:27:54;19.52;;;2.72;;
44366;SDS011;30086;57.660;12.000;2023-02-18T01:30:21;10.80;;;2.20;;
44366;SDS011;30086;57.660;12.000;2023-02-18T01:32:50;16.50;;;2.80;;
44366;SDS011;30086;57.660;12.000;2023-02-18T01:35:17;11.43;;;2.97;;
44366;SDS011;30086;57.660;12.000;2023-02-18T01:37:54;18.23;;;2.90;;
44366;SDS011;30086;57.660;12.000;2023-02-18T01:40:22;14.35;;;2.55;;
44366;SDS011;30086;57.660;12.000;2023-02-18T01:42:48;15.85;;;2.40;;
44366;SDS011;30086;57.660;12.000;2023-02-18T01:47:59;7.22;;;2.00;;
44366;SDS011;30086;57.660;12.000;2023-02-18T01:50:28;11.02;;;2.28;;
44366;SDS011;30086;57.660;12.000;2023-02-18T01:52:55;17.00;;;2.78;;
44366;SDS011;30086;57.660;12.000;2023-02-18T01:55:21;16.48;;;3.15;;
44366;SDS011;30086;57.660;12.000;2023-02-18T01:57:48;15.25;;;2.67;;
44366;SDS011;30086;57.660;12.000;2023-02-18T02:00:16;19.05;;;2.72;;
44366;SDS011;30086;57.660;12.000;2023-02-18T02:02:46;7.72;;;1.67;;
44366;SDS011;30086;57.660;12.000;2023-02-18T02:05:12;16.33;;;2.03;;
44366;SDS011;30086;57.660;12.000;2023-02-18T02:07:40;3.13;;;1.15;;
44366;SDS011;30086;57.660;12.000;2023-02-18T02:10:10;19.52;;;2.83;;
44366;SDS011;30086;57.660;12.000;2023-02-18T02:12:41;12.68;;;2.20;;
44366;SDS011;30086;57.660;12.000;2023-02-18T02:15:29;10.43;;;2.03;;
44366;SDS011;30086;57.660;12.000;2023-02-18T02:18:26;9.25;;;2.08;;
44366;SDS011;30086;57.660;12.000;2023-02-18T02:42:14;12.80;;;2.28;;
44366;SDS011;30086;57.660;12.000;2023-02-18T02:47:30;6.85;;;1.77;;
44366;SDS011;30086;57.660;12.000;2023-02-18T02:50:00;7.40;;;1.65;;
44366;SDS011;30086;57.660;12.000;2023-02-18T02:52:33;11.38;;;1.98;;
44366;SDS011;30086;57.660;12.000;2023-02-18T02:55:12;14.23;;;2.80;;
44366;SDS011;30086;57.660;12.000;2023-02-18T02:57:45;7.15;;;1.65;;
44366;SDS011;30086;57.660;12.000;2023-02-18T03:00:12;6.85;;;1.75;;
44366;SDS011;30086;57.660;12.000;2023-02-18T03:02:55;14.30;;;1.70;;
44366;SDS011;30086;57.660;12.000;2023-02-18T03:08:11;10.77;;;2.22;;
44366;SDS011;30086;57.660;12.000;2023-02-18T03:10:52;13.27;;;2.33;;
44366;SDS011;30086;57.660;12.000;2023-02-18T03:13:25;11.05;;;2.13;;
44366;SDS011;30086;57.660;12.000;2023-02-18T03:16:15;7.65;;;1.45;;
44366;SDS011;30086;57.660;12.000;2023-02-18T03:21:35;11.95;;;1.48;;
44366;SDS011;30086;57.660;12.000;2023-02-18T03:24:13;13.73;;;2.40;;
44366;SDS011;30086;57.660;12.000;2023-02-18T03:26:46;16.40;;;2.42;;
44366;SDS011;30086;57.660;12.000;2023-02-18T03:29:13;5.22;;;1.17;;
44366;SDS011;30086;57.660;12.000;2023-02-18T03:31:42;14.05;;;2.65;;
44366;SDS011;30086;57.660;12.000;2023-02-18T03:34:11;11.15;;;1.85;;
44366;SDS011;30086;57.660;12.000;2023-02-18T03:36:38;13.27;;;3.05;;
44366;SDS011;30086;57.660;12.000;2023-02-18T03:39:07;18.45;;;4.32;;
44366;SDS011;30086;57.660;12.000;2023-02-18T03:41:34;9.68;;;2.00;;
44366;SDS011;30086;57.660;12.000;2023-02-18T03:44:01;18.98;;;2.22;;
44366;SDS011;30086;57.660;12.000;2023-02-18T03:46:30;18.02;;;2.15;;
44366;SDS011;30086;57.660;12.000;2023-02-18T03:48:57;9.13;;;1.55;;
44366;SDS011;30086;57.660;12.000;2023-02-18T03:51:25;20.73;;;3.33;;
44366;SDS011;30086;57.660;12.000;2023-02-18T03:53:51;15.43;;;2.70;;
44366;SDS011;30086;57.660;12.000;2023-02-18T03:56:18;11.45;;;2.08;;
44366;SDS011;30086;57.660;12.000;2023-02-18T03:58:44;19.27;;;4.60;;
44366;SDS011;30086;57.660;12.000;2023-02-18T04:01:10;16.73;;;2.53;;
44366;SDS011;30086;57.660;12.000;2023-02-18T04:03:36;16.08;;;2.83;;
44366;SDS011;30086;57.660;12.000;2023-02-18T04:06:02;9.73;;;1.23;;
44366;SDS011;30086;57.660;12.000;2023-02-18T04:08:29;11.10;;;2.55;;
44366;SDS011;30086;57.660;12.000;2023-02-18T04:10:55;5.15;;;1.23;;
44366;SDS011;30086;57.660;12.000;2023-02-18T04:13:21;10.50;;;1.33;;
44366;SDS011;30086;57.660;12.000;2023-02-18T04:15:51;19.17;;;3.05;;
44366;SDS011;30086;57.660;12.000;2023-02-18T04:18:18;12.73;;;2.63;;
44366;SDS011;30086;57.660;12.000;2023-02-18T04:20:44;4.25;;;0.95;;
44366;SDS011;30086;57.660;12.000;2023-02-18T04:23:11;18.85;;;2.42;;
44366;SDS011;30086;57.660;12.000;2023-02-18T04:25:37;17.75;;;3.65;;
44366;SDS011;30086;57.660;12.000;2023-02-18T04:28:04;9.35;;;1.85;;
44366;SDS011;30086;57.660;12.000;2023-02-18T04:30:30;15.07;;;1.67;;
44366;SDS011;30086;57.660;12.000;2023-02-18T04:32:56;16.23;;;2.97;;
44366;SDS011;30086;57.660;12.000;2023-02-18T04:35:22;4.40;;;1.20;;
44366;SDS011;30086;57.660;12.000;2023-02-18T04:37:49;21.20;;;2.63;;
44366;SDS011;30086;57.660;12.000;2023-02-18T04:40:16;7.15;;;1.65;;
44366;SDS011;30086;57.660;12.000;2023-02-18T04:42:42;3.83;;;1.17;;
44366;SDS011;30086;57.660;12.000;2023-02-18T04:45:08;6.50;;;1.65;;
44366;SDS011;30086;57.660;12.000;2023-02-18T04:47:35;13.68;;;1.85;;
44366;SDS011;30086;57.660;12.000;2023-02-18T04:50:01;13.60;;;1.88;;
44366;SDS011;30086;57.660;12.000;2023-02-18T04:52:28;17.77;;;3.05;;
44366;SDS011;30086;57.660;12.000;2023-02-18T04:54:54;15.02;;;2.33;;
44366;SDS011;30086;57.660;12.000;2023-02-18T04:57:20;12.25;;;2.53;;
44366;SDS011;30086;57.660;12.000;2023-02-18T04:59:49;13.02;;;3.30;;
44366;SDS011;30086;57.660;12.000;2023-02-18T05:02:15;8.70;;;1.83;;
44366;SDS011;30086;57.660;12.000;2023-02-18T05:04:43;8.38;;;1.38;;
44366;SDS011;30086;57.660;12.000;2023-02-18T05:07:09;12.50;;;2.05;;
44366;SDS011;30086;57.660;12.000;2023-02-18T05:09:35;8.75;;;2.15;;
44366;SDS011;30086;57.660;12.000;2023-02-18T05:12:01;7.20;;;1.77;;
44366;SDS011;30086;57.660;12.000;2023-02-18T05:14:27;9.15;;;1.77;;
44366;SDS011;30086;57.660;12.000;2023-02-18T05:16:56;22.63;;;1.73;;
44366;SDS011;30086;57.660;12.000;2023-02-18T05:19:23;15.52;;;2.33;;
44366;SDS011;30086;57.660;12.000;2023-02-18T05:21:50;8.10;;;2.33;;
44366;SDS011;30086;57.660;12.000;2023-02-18T05:24:16;13.23;;;2.58;;
44366;SDS011;30086;57.660;12.000;2023-02-18T05:26:48;12.13;;;2.25;;
44366;SDS011;30086;57.660;12.000;2023-02-18T05:29:18;10.98;;;1.92;;
44366;SDS011;30086;57.660;12.000;2023-02-18T05:31:44;9.57;;;2.05;;
44366;SDS011;30086;57.660;12.000;2023-02-18T05:34:12;14.98;;;2.42;;
44366;SDS011;30086;57.660;12.000;2023-02-18T05:36:39;4.68;;;1.25;;
44366;SDS011;30086;57.660;12.000;2023-02-18T05:39:06;15.70;;;2.35;;
44366;SDS011;30086;57.660;12.000;2023-02-18T05:41:32;5.45;;;2.30;;
44366;SDS011;30086;57.660;12.000;2023-02-18T05:43:59;14.05;;;2.67;;
44366;SDS011;30086;57.660;12.000;2023-02-18T05:46:44;19.63;;;2.55;;
44366;SDS011;30086;57.660;12.000;2023-02-18T05:49:11;11.05;;;2.15;;
44366;SDS011;30086;57.660;12.000;2023-02-18T05:51:38;17.13;;;2.10;;
44366;SDS011;30086;57.660;12.000;2023-02-18T05:54:05;9.25;;;0.90;;
44366;SDS011;30086;57.660;12.000;2023-02-18T05:56:32;13.43;;;2.28;;
44366;SDS011;30086;57.660;12.000;2023-02-18T05:58:58;12.30;;;2.45;;
44366;SDS011;30086;57.660;12.000;2023-02-18T06:01:25;2.53;;;1.48;;
44366;SDS011;30086;57.660;12.000;2023-02-18T06:03:51;6.65;;;1.58;;
44366;SDS011;30086;57.660;12.000;2023-02-18T06:06:18;12.50;;;2.17;;
44366;SDS011;30086;57.660;12.000;2023-02-18T06:08:48;9.00;;;2.95;;
44366;SDS011;30086;57.660;12.000;2023-02-18T06:11:30;8.18;;;1.85;;
44366;SDS011;30086;57.660;12.000;2023-02-18T06:13:56;11.55;;;1.83;;
44366;SDS011;30086;57.660;12.000;2023-02-18T06:16:24;10.02;;;1.88;;
44366;SDS011;30086;57.660;12.000;2023-02-18T06:18:52;20.90;;;3.50;;
44366;SDS011;30086;57.660;12.000;2023-02-18T06:21:18;13.95;;;3.25;;
44366;SDS011;30086;57.660;12.000;2023-02-18T06:23:45;7.05;;;1.45;;
44366;SDS011;30086;57.660;12.000;2023-02-18T06:26:11;13.00;;;1.98;;
44366;SDS011;30086;57.660;12.000;2023-02-18T06:28:38;16.45;;;2.92;;
44366;SDS011;30086;57.660;12.000;2023-02-18T06:31:04;10.02;;;1.20;;
44366;SDS011;30086;57.660;12.000;2023-02-18T06:33:31;16.48;;;2.88;;
44366;SDS011;30086;57.660;12.000;2023-02-18T06:36:02;9.07;;;1.70;;
44366;SDS011;30086;57.660;12.000;2023-02-18T06:38:30;7.13;;;1.35;;
44366;SDS011;30086;57.660;12.000;2023-02-18T06:40:57;13.27;;;2.80;;
44366;SDS011;30086;57.660;12.000;2023-02-18T06:43:23;7.13;;;1.77;;
44366;SDS011;30086;57.660;12.000;2023-02-18T06:45:50;11.20;;;1.75;;
44366;SDS011;30086;57.660;12.000;2023-02-18T06:48:18;12.20;;;1.85;;
44366;SDS011;30086;57.660;12.000;2023-02-18T06:50:48;14.93;;;2.65;;
44366;SDS011;30086;57.660;12.000;2023-02-18T06:53:15;14.38;;;1.92;;
44366;SDS011;30086;57.660;12.000;2023-02-18T06:55:42;21.92;;;3.05;;
44366;SDS011;30086;57.660;12.000;2023-02-18T06:58:09;14.15;;;1.83;;
44366;SDS011;30086;57.660;12.000;2023-02-18T07:00:40;12.85;;;1.85;;
44366;SDS011;30086;57.660;12.000;2023-02-18T07:03:07;6.97;;;2.20;;
44366;SDS011;30086;57.660;12.000;2023-02-18T07:05:33;15.43;;;2.35;;
44366;SDS011;30086;57.660;12.000;2023-02-18T07:07:59;8.00;;;1.65;;
44366;SDS011;30086;57.660;12.000;2023-02-18T07:10:27;10.13;;;2.00;;
44366;SDS011;30086;57.660;12.000;2023-02-18T07:12:55;14.60;;;2.15;;
44366;SDS011;30086;57.660;12.000;2023-02-18T07:15:23;3.90;;;1.02;;
44366;SDS011;30086;57.660;12.000;2023-02-18T07:17:54;7.38;;;1.58;;
44366;SDS011;30086;57.660;12.000;2023-02-18T07:20:20;11.00;;;2.03;;
44366;SDS011;30086;57.660;12.000;2023-02-18T07:22:58;9.43;;;0.95;;
44366;SDS011;30086;57.660;12.000;2023-02-18T07:25:28;8.23;;;1.92;;
44366;SDS011;30086;57.660;12.000;2023-02-18T07:27:59;6.43;;;1.30;;
44366;SDS011;30086;57.660;12.000;2023-02-18T07:30:28;9.57;;;1.50;;
44366;SDS011;30086;57.660;12.000;2023-02-18T07:32:55;18.92;;;3.13;;
44366;SDS011;30086;57.660;12.000;2023-02-18T07:35:23;8.93;;;1.45;;
44366;SDS011;30086;57.660;12.000;2023-02-18T07:37:53;9.20;;;2.10;;
44366;SDS011;30086;57.660;12.000;2023-02-18T07:40:28;11.32;;;2.60;;
44366;SDS011;30086;57.660;12.000;2023-02-18T07:42:55;7.88;;;1.98;;
44366;SDS011;30086;57.660;12.000;2023-02-18T07:45:23;18.52;;;2.97;;
44366;SDS011;30086;57.660;12.000;2023-02-18T07:48:02;4.47;;;0.68;;
44366;SDS011;30086;57.660;12.000;2023-02-18T07:50:29;10.85;;;2.03;;
44366;SDS011;30086;57.660;12.000;2023-02-18T07:53:16;6.28;;;1.55;;
44366;SDS011;30086;57.660;12.000;2023-02-18T07:55:44;6.85;;;1.27;;
44366;SDS011;30086;57.660;12.000;2023-02-18T07:58:19;11.80;;;1.98;;
44366;SDS011;30086;57.660;12.000;2023-02-18T08:00:46;5.07;;;1.00;;
44366;SDS011;30086;57.660;12.000;2023-02-18T08:03:14;10.52;;;1.20;;
44366;SDS011;30086;57.660;12.000;2023-02-18T08:05:43;11.10;;;1.23;;
44366;SDS011;30086;57.660;12.000;2023-02-18T08:08:13;5.50;;;1.27;;
44366;SDS011;30086;57.660;12.000;2023-02-18T08:10:41;11.80;;;1.52;;
44366;SDS011;30086;57.660;12.000;2023-02-18T08:13:07;13.63;;;1.65;;
44366;SDS011;30086;57.660;12.000;2023-02-18T08:15:36;5.38;;;1.38;;
44366;SDS011;30086;57.660;12.000;2023-02-18T08:18:02;17.75;;;2.55;;
44366;SDS011;30086;57.660;12.000;2023-02-18T08:20:28;14.00;;;2.20;;
44366;SDS011;30086;57.660;12.000;2023-02-18T08:22:59;16.58;;;2.65;;
44366;SDS011;30086;57.660;12.000;2023-02-18T08:25:47;11.30;;;2.50;;
44366;SDS011;30086;57.660;12.000;2023-02-18T08:28:18;15.70;;;1.83;;
44366;SDS011;30086;57.660;12.000;2023-02-18T08:30:49;11.73;;;1.65;;
44366;SDS011;30086;57.660;12.000;2023-02-18T08:33:36;7.60;;;1.63;;
44366;SDS011;30086;57.660;12.000;2023-02-18T08:36:06;4.15;;;1.30;;
44366;SDS011;30086;57.660;12.000;2023-02-18T08:39:07;6.95;;;1.50;;
44366;SDS011;30086;57.660;12.000;2023-02-18T08:41:43;7.38;;;1.40;;
44366;SDS011;30086;57.660;12.000;2023-02-18T08:44:30;15.07;;;2.67;;
44366;SDS011;30086;57.660;12.000;2023-02-18T08:46:56;11.43;;;1.65;;
44366;SDS011;30086;57.660;12.000;2023-02-18T08:49:25;20.17;;;1.90;;
44366;SDS011;30086;57.660;12.000;2023-02-18T08:51:52;9.90;;;2.30;;
44366;SDS011;30086;57.660;12.000;2023-02-18T08:54:18;7.13;;;1.58;;
44366;SDS011;30086;57.660;12.000;2023-02-18T08:56:47;9.57;;;1.33;;
44366;SDS011;30086;57.660;12.000;2023-02-18T08:59:37;10.52;;;1.90;;
44366;SDS011;30086;57.660;12.000;2023-02-18T09:02:03;8.57;;;2.33;;
44366;SDS011;30086;57.660;12.000;2023-02-18T09:04:33;8.63;;;1.95;;
44366;SDS011;30086;57.660;12.000;2023-02-18T09:07:25;10.80;;;1.40;;
44366;SDS011;30086;57.660;12.000;2023-02-18T09:09:51;10.90;;;2.03;;
44366;SDS011;30086;57.660;12.000;2023-02-18T09:12:17;7.38;;;1.27;;
44366;SDS011;30086;57.660;12.000;2023-02-18T09:14:46;9.38;;;1.98;;
44366;SDS011;30086;57.660;12.000;2023-02-18T09:17:12;12.00;;;1.80;;
44366;SDS011;30086;57.660;12.000;2023-02-18T09:19:39;7.82;;;1.85;;
44366;SDS011;30086;57.660;12.000;2023-02-18T09:22:05;14.02;;;1.60;;
44366;SDS011;30086;57.660;12.000;2023-02-18T09:24:39;6.35;;;1.80;;
44366;SDS011;30086;57.660;12.000;2023-02-18T09:27:08;11.98;;;2.58;;
44366;SDS011;30086;57.660;12.000;2023-02-18T09:29:39;11.57;;;1.85;;
44366;SDS011;30086;57.660;12.000;2023-02-18T09:32:06;22.65;;;2.17;;
44366;SDS011;30086;57.660;12.000;2023-02-18T09:35:04;8.65;;;1.63;;
44366;SDS011;30086;57.660;12.000;2023-02-18T09:37:31;11.38;;;2.33;;
44366;SDS011;30086;57.660;12.000;2023-02-18T09:39:58;7.28;;;1.40;;
44366;SDS011;30086;57.660;12.000;2023-02-18T09:42:30;21.38;;;2.25;;
44366;SDS011;30086;57.660;12.000;2023-02-18T09:45:00;4.55;;;1.02;;
44366;SDS011;30086;57.660;12.000;2023-02-18T09:47:36;8.13;;;1.27;;
44366;SDS011;30086;57.660;12.000;2023-02-18T09:52:46;14.45;;;2.88;;
44366;SDS011;30086;57.660;12.000;2023-02-18T09:55:17;8.70;;;1.35;;
44366;SDS011;30086;57.660;12.000;2023-02-18T09:57:51;8.50;;;1.73;;
44366;SDS011;30086;57.660;12.000;2023-02-18T10:03:01;6.53;;;0.82;;
44366;SDS011;30086;57.660;12.000;2023-02-18T10:05:29;10.93;;;1.60;;
44366;SDS011;30086;57.660;12.000;2023-02-18T10:08:22;4.97;;;1.40;;
44366;SDS011;30086;57.660;12.000;2023-02-18T10:10:55;18.05;;;1.92;;
44366;SDS011;30086;57.660;12.000;2023-02-18T10:13:22;11.57;;;2.05;;
44366;SDS011;30086;57.660;12.000;2023-02-18T10:15:50;6.38;;;1.17;;
44366;SDS011;30086;57.660;12.000;2023-02-18T10:23:36;10.82;;;2.30;;
44366;SDS011;30086;57.660;12.000;2023-02-18T10:26:09;10.80;;;2.00;;
44366;SDS011;30086;57.660;12.000;2023-02-18T10:28:37;3.30;;;1.13;;
44366;SDS011;30086;57.660;12.000;2023-02-18T10:31:09;5.47;;;1.55;;
44366;SDS011;30086;57.660;12.000;2023-02-18T10:33:43;17.27;;;2.05;;
44366;SDS011;30086;57.660;12.000;2023-02-18T10:37:04;10.95;;;1.30;;
44366;SDS011;30086;57.660;12.000;2023-02-18T10:44:57;5.03;;;1.90;;
44366;SDS011;30086;57.660;12.000;2023-02-18T10:52:41;9.30;;;1.80;;
44366;SDS011;30086;57.660;12.000;2023-02-18T10:55:15;8.10;;;1.65;;
44366;SDS011;30086;57.660;12.000;2023-02-18T10:57:47;7.47;;;1.70;;
44366;SDS011;30086;57.660;12.000;2023-02-18T11:00:19;9.15;;;2.08;;
44366;SDS011;30086;57.660;12.000;2023-02-18T11:02:59;5.03;;;1.38;;
44366;SDS011;30086;57.660;12.000;2023-02-18T11:05:27;12.02;;;1.95;;
44366;SDS011;30086;57.660;12.000;2023-02-18T11:07:55;9.98;;;1.35;;
44366;SDS011;30086;57.660;12.000;2023-02-18T11:10:28;5.25;;;1.20;;
44366;SDS011;30086;57.660;12.000;2023-02-18T11:12:56;5.93;;;0.85;;
44366;SDS011;30086;57.660;12.000;2023-02-18T11:15:24;6.22;;;1.45;;
44366;SDS011;30086;57.660;12.000;2023-02-18T11:17:54;5.45;;;0.95;;
44366;SDS011;30086;57.660;12.000;2023-02-18T11:22:47;9.88;;;1.60;;
44366;SDS011;30086;57.660;12.000;2023-02-18T11:25:27;10.98;;;1.52;;
44366;SDS011;30086;57.660;12.000;2023-02-18T11:27:57;10.23;;;1.10;;
44366;SDS011;30086;57.660;12.000;2023-02-18T11:30:41;6.55;;;1.63;;
44366;SDS011;30086;57.660;12.000;2023-02-18T11:33:08;10.68;;;1.50;;
44366;SDS011;30086;57.660;12.000;2023-02-18T11:35:38;5.72;;;1.35;;
44366;SDS011;30086;57.660;12.000;2023-02-18T11:38:13;3.45;;;0.65;;
44366;SDS011;30086;57.660;12.000;2023-02-18T11:40:41;6.00;;;1.50;;
44366;SDS011;30086;57.660;12.000;2023-02-18T11:43:11;4.20;;;0.82;;
44366;SDS011;30086;57.660;12.000;2023-02-18T11:45:38;5.68;;;1.25;;
44366;SDS011;30086;57.660;12.000;2023-02-18T11:50:39;6.05;;;1.55;;
44366;SDS011;30086;57.660;12.000;2023-02-18T11:53:29;6.30;;;1.20;;
44366;SDS011;30086;57.660;12.000;2023-02-18T11:55:57;6.78;;;1.30;;
44366;SDS011;30086;57.660;12.000;2023-02-18T11:58:24;13.38;;;1.33;;
44366;SDS011;30086;57.660;12.000;2023-02-18T12:00:53;6.70;;;1.45;;
44366;SDS011;30086;57.660;12.000;2023-02-18T12:03:37;6.28;;;1.30;;
44366;SDS011;30086;57.660;12.000;2023-02-18T12:06:04;4.47;;;1.20;;
44366;SDS011;30086;57.660;12.000;2023-02-18T12:08:43;5.03;;;1.00;;
44366;SDS011;30086;57.660;12.000;2023-02-18T12:11:15;8.43;;;1.45;;
44366;SDS011;30086;57.660;12.000;2023-02-18T12:13:49;3.83;;;0.75;;
44366;SDS011;30086;57.660;12.000;2023-02-18T12:19:08;3.75;;;0.85;;
44366;SDS011;30086;57.660;12.000;2023-02-18T12:22:00;4.03;;;0.40;;
44366;SDS011;30086;57.660;12.000;2023-02-18T12:39:34;2.55;;;0.70;;
44366;SDS011;30086;57.660;12.000;2023-02-18T12:42:27;4.13;;;0.80;;
44366;SDS011;30086;57.660;12.000;2023-02-18T12:47:29;2.60;;;1.00;;
44366;SDS011;30086;57.660;12.000;2023-02-18T12:50:15;4.07;;;0.50;;
44366;SDS011;30086;57.660;12.000;2023-02-18T12:58:01;5.30;;;1.08;;
44366;SDS011;30086;57.660;12.000;2023-02-18T13:00:43;3.43;;;0.73;;
44366;SDS011;30086;57.660;12.000;2023-02-18T13:13:41;2.72;;;0.50;;
44366;SDS011;30086;57.660;12.000;2023-02-18T13:16:14;0.63;;;0.30;;
44366;SDS011;30086;57.660;12.000;2023-02-18T13:18:42;7.57;;;1.30;;
44366;SDS011;30086;57.660;12.000;2023-02-18T13:21:11;1.90;;;0.47;;
44366;SDS011;30086;57.660;12.000;2023-02-18T13:26:22;2.30;;;0.60;;
44366;SDS011;30086;57.660;12.000;2023-02-18T13:28:51;0.40;;;0.28;;
44366;SDS011;30086;57.660;12.000;2023-02-18T13:36:39;6.75;;;0.90;;
44366;SDS011;30086;57.660;12.000;2023-02-18T13:39:08;2.97;;;0.75;;
44366;SDS011;30086;57.660;12.000;2023-02-18T13:41:43;4.20;;;0.90;;
44366;SDS011;30086;57.660;12.000;2023-02-18T13:46:48;6.07;;;1.60;;
44366;SDS011;30086;57.660;12.000;2023-02-18T13:49:17;3.35;;;0.77;;
44366;SDS011;30086;57.660;12.000;2023-02-18T13:51:44;2.17;;;0.85;;
44366;SDS011;30086;57.660;12.000;2023-02-18T13:56:56;7.93;;;1.27;;
44366;SDS011;30086;57.660;12.000;2023-02-18T14:02:06;7.28;;;0.95;;
44366;SDS011;30086;57.660;12.000;2023-02-18T14:09:38;3.17;;;0.52;;
44366;SDS011;30086;57.660;12.000;2023-02-18T14:14:41;0.50;;;0.30;;
44366;SDS011;30086;57.660;12.000;2023-02-18T14:19:52;2.30;;;0.98;;
44366;SDS011;30086;57.660;12.000;2023-02-18T14:22:31;0.63;;;0.38;;
44366;SDS011;30086;57.660;12.000;2023-02-18T14:27:33;2.50;;;0.57;;
44366;SDS011;30086;57.660;12.000;2023-02-18T14:30:03;1.42;;;0.68;;
44366;SDS011;30086;57.660;12.000;2023-02-18T14:32:30;7.95;;;0.65;;
44366;SDS011;30086;57.660;12.000;2023-02-18T14:45:24;2.38;;;0.50;;
44366;SDS011;30086;57.660;12.000;2023-02-18T14:50:21;4.53;;;0.63;;
44366;SDS011;30086;57.660;12.000;2023-02-18T14:52:48;4.40;;;0.70;;
44366;SDS011;30086;57.660;12.000;2023-02-18T14:55:37;0.65;;;0.28;;
44366;SDS011;30086;57.660;12.000;2023-02-18T14:58:04;2.92;;;0.95;;
44366;SDS011;30086;57.660;12.000;2023-02-18T15:00:38;2.45;;;0.47;;
44366;SDS011;30086;57.660;12.000;2023-02-18T15:03:11;1.38;;;0.60;;
44366;SDS011;30086;57.660;12.000;2023-02-18T15:05:38;1.58;;;0.40;;
44366;SDS011;30086;57.660;12.000;2023-02-18T15:08:14;2.47;;;0.47;;
44366;SDS011;30086;57.660;12.000;2023-02-18T15:10:41;2.45;;;0.88;;
44366;SDS011;30086;57.660;12.000;2023-02-18T15:13:10;6.95;;;0.82;;
44366;SDS011;30086;57.660;12.000;2023-02-18T15:15:37;0.57;;;0.55;;
44366;SDS011;30086;57.660;12.000;2023-02-18T15:18:03;0.80;;;0.47;;
44366;SDS011;30086;57.660;12.000;2023-02-18T15:20:33;2.30;;;0.28;;
44366;SDS011;30086;57.660;12.000;2023-02-18T15:22:59;2.85;;;0.68;;
44366;SDS011;30086;57.660;12.000;2023-02-18T15:25:26;7.55;;;1.27;;
44366;SDS011;30086;57.660;12.000;2023-02-18T15:27:52;2.28;;;0.90;;
44366;SDS011;30086;57.660;12.000;2023-02-18T15:30:25;1.70;;;0.70;;
44366;SDS011;30086;57.660;12.000;2023-02-18T15:32:54;3.78;;;0.70;;
44366;SDS011;30086;57.660;12.000;2023-02-18T15:35:21;1.38;;;0.75;;
44366;SDS011;30086;57.660;12.000;2023-02-18T15:37:52;0.52;;;0.35;;
44366;SDS011;30086;57.660;12.000;2023-02-18T15:40:18;2.20;;;0.68;;
44366;SDS011;30086;57.660;12.000;2023-02-18T15:42:50;2.38;;;1.00;;
44366;SDS011;30086;57.660;12.000;2023-02-18T15:45:18;2.53;;;0.30;;
44366;SDS011;30086;57.660;12.000;2023-02-18T15:47:54;10.60;;;1.02;;
44366;SDS011;30086;57.660;12.000;2023-02-18T15:50:27;7.13;;;0.73;;
44366;SDS011;30086;57.660;12.000;2023-02-18T15:52:54;4.68;;;0.82;;
44366;SDS011;30086;57.660;12.000;2023-02-18T15:57:50;1.92;;;0.47;;
44366;SDS011;30086;57.660;12.000;2023-02-18T16:00:20;2.60;;;0.55;;
44366;SDS011;30086;57.660;12.000;2023-02-18T16:02:52;9.48;;;0.88;;
44366;SDS011;30086;57.660;12.000;2023-02-18T16:05:23;2.38;;;0.60;;
44366;SDS011;30086;57.660;12.000;2023-02-18T16:07:51;4.82;;;0.88;;
44366;SDS011;30086;57.660;12.000;2023-02-18T16:12:45;3.55;;;0.38;;
44366;SDS011;30086;57.660;12.000;2023-02-18T16:15:15;2.38;;;0.63;;
44366;SDS011;30086;57.660;12.000;2023-02-18T16:17:44;3.42;;;0.77;;
44366;SDS011;30086;57.660;12.000;2023-02-18T16:22:49;2.58;;;0.70;;
44366;SDS011;30086;57.660;12.000;2023-02-18T16:25:19;8.93;;;1.08;;
44366;SDS011;30086;57.660;12.000;2023-02-18T16:28:03;3.90;;;0.80;;
44366;SDS011;30086;57.660;12.000;2023-02-18T16:30:31;1.27;;;0.98;;
44366;SDS011;30086;57.660;12.000;2023-02-18T16:32:57;4.22;;;0.85;;
44366;SDS011;30086;57.660;12.000;2023-02-18T16:35:26;1.23;;;0.75;;
44366;SDS011;30086;57.660;12.000;2023-02-18T16:37:52;6.68;;;0.50;;
44366;SDS011;30086;57.660;12.000;2023-02-18T16:42:47;3.13;;;1.00;;
44366;SDS011;30086;57.660;12.000;2023-02-18T16:45:14;6.60;;;1.05;;
44366;SDS011;30086;57.660;12.000;2023-02-18T16:47:40;7.95;;;1.38;;
44366;SDS011;30086;57.660;12.000;2023-02-18T16:50:09;0.55;;;0.45;;
44366;SDS011;30086;57.660;12.000;2023-02-18T16:52:38;2.20;;;0.70;;
44366;SDS011;30086;57.660;12.000;2023-02-18T16:55:14;5.45;;;0.85;;
44366;SDS011;30086;57.660;12.000;2023-02-18T16:57:42;9.95;;;1.00;;
44366;SDS011;30086;57.660;12.000;2023-02-18T17:00:09;4.10;;;1.05;;
44366;SDS011;30086;57.660;12.000;2023-02-18T17:02:35;10.63;;;1.60;;
44366;SDS011;30086;57.660;12.000;2023-02-18T17:05:01;5.05;;;1.23;;
44366;SDS011;30086;57.660;12.000;2023-02-18T17:07:27;3.45;;;1.08;;
44366;SDS011;30086;57.660;12.000;2023-02-18T17:09:57;7.03;;;1.00;;
44366;SDS011;30086;57.660;12.000;2023-02-18T17:12:24;7.22;;;1.73;;